Time;durP1;ratioP1;P1;durP2;ratioP2;P2;SDS_P1;SDS_P2;PMS_P1;PMS_P2;Temp;Humidity;BMP_temperature;BMP_pressure;BME280_temperature;BME280_humidity;BME280_pressure;Samples;Min_cycle;Max_cycle;Signal;HPM_P1;HPM_P2
2022/10/18 04:32:08;;;;;;;;;18.25;16.50;;;;;18.47;89.81;102133.09;1441095;25;46177;-81
2022/10/18 04:34:33;;;;;;;;;22.50;22.50;;;;;18.46;89.34;102125.91;5118417;27;45320;-77
2022/10/18 04:36:58;;;;;;;;;21.00;20.25;;;;;18.49;89.85;102130.28;5116288;27;46306;-77
2022/10/18 04:39:24;;;;;;;;;22.00;22.00;;;;;18.49;89.61;102120.31;5118200;27;45347;-77
2022/10/18 04:41:49;;;;;;;;;23.00;20.75;;;;;18.42;89.60;102116.19;5117885;27;45497;-76
2022/10/18 04:44:14;;;;;;;;;24.75;21.50;;;;;18.42;89.52;102124.34;5117977;27;45545;-77
2022/10/18 04:46:40;;;;;;;;;23.50;21.75;;;;;18.44;89.51;102126.97;5116912;27;45274;-74
2022/10/18 04:49:05;;;;;;;;;25.00;23.25;;;;;18.48;89.33;102143.00;5118533;27;45695;-77
2022/10/18 04:51:30;;;;;;;;;26.50;23.50;;;;;18.50;89.40;102145.63;5117161;27;45553;-79
2022/10/18 04:53:56;;;;;;;;;22.50;21.75;;;;;18.41;88.83;102138.88;5118491;27;45329;-77
2022/10/18 04:56:22;;;;;;;;;24.75;24.75;;;;;18.42;89.17;102143.34;5118962;27;45365;-77
2022/10/18 04:58:47;;;;;;;;;29.50;25.50;;;;;18.42;89.12;102147.91;5119048;27;45767;-77
2022/10/18 05:01:12;;;;;;;;;23.75;23.75;;;;;18.35;89.08;102143.78;5117912;27;46075;-74
2022/10/18 05:03:38;;;;;;;;;12.00;7.00;;;;;18.33;89.38;102145.72;5117942;27;45555;-75
2022/10/18 05:06:04;;;;;;;;;25.50;23.50;;;;;18.26;89.47;102136.16;5116415;27;47307;-77
2022/10/18 05:08:32;;;;;;;;;24.25;21.50;;;;;18.35;89.69;102158.25;5117610;27;45379;-76
2022/10/18 05:10:58;;;;;;;;;22.50;22.50;;;;;18.36;89.55;102159.13;5117707;27;45487;-75
2022/10/18 05:13:23;;;;;;;;;30.25;27.75;;;;;18.28;89.27;102145.97;5116354;27;47667;-74
2022/10/18 05:15:48;;;;;;;;;28.75;24.50;;;;;18.32;89.39;102152.09;5117387;27;45462;-73
2022/10/18 05:18:14;;;;;;;;;27.75;25.00;;;;;18.29;89.19;102150.41;5117255;27;45362;-71
2022/10/18 05:20:39;;;;;;;;;31.25;27.75;;;;;18.23;88.85;102147.19;5117747;27;45444;-73
2022/10/18 05:23:05;;;;;;;;;31.75;22.25;;;;;18.21;88.90;102146.38;5116858;27;45665;-73
2022/10/18 05:25:30;;;;;;;;;24.00;22.00;;;;;18.19;89.21;102145.59;5117139;27;48460;-73
2022/10/18 05:27:55;;;;;;;;;29.50;27.25;;;;;18.26;89.48;102161.47;5117207;27;45500;-73
2022/10/18 05:30:21;;;;;;;;;29.25;25.25;;;;;18.21;89.45;102147.25;5116277;27;45373;-74
2022/10/18 05:32:46;;;;;;;;;32.00;28.00;;;;;18.14;88.50;102144.00;5096116;27;45404;-73
2022/10/18 05:35:12;;;;;;;;;30.50;26.00;;;;;18.18;89.13;102152.00;5096374;27;45304;-73
2022/10/18 05:37:37;;;;;;;;;26.75;25.75;;;;;18.21;89.00;102157.22;5095767;27;45388;-73
2022/10/18 05:40:04;;;;;;;;;26.50;25.25;;;;;18.20;89.12;102163.66;5096518;27;45363;-72
2022/10/18 05:42:30;;;;;;;;;28.50;25.50;;;;;18.15;88.98;102142.16;5096317;27;45334;-73
2022/10/18 05:44:55;;;;;;;;;30.25;26.00;;;;;18.18;89.35;102160.13;5096328;27;45868;-72
2022/10/18 05:47:20;;;;;;;;;33.00;28.75;;;;;18.19;89.02;102156.47;5096259;27;45330;-74
2022/10/18 05:49:46;;;;;;;;;28.50;27.75;;;;;18.19;88.71;102165.50;5108695;27;45396;-72
2022/10/18 05:52:12;;;;;;;;;27.75;24.25;;;;;18.14;88.79;102156.69;5095971;27;45430;-74
2022/10/18 05:54:37;;;;;;;;;23.00;21.00;;;;;18.17;89.44;102159.25;5108107;27;47017;-71
2022/10/18 05:57:02;;;;;;;;;22.75;21.75;;;;;18.21;89.63;102159.94;5096923;27;45304;-75
2022/10/18 05:59:28;;;;;;;;;28.00;23.25;;;;;18.21;89.43;102162.66;5110445;27;45218;-75
2022/10/18 06:01:53;;;;;;;;;30.75;25.75;;;;;18.19;88.64;102161.91;5116202;27;45362;-71
2022/10/18 06:04:19;;;;;;;;;37.25;30.00;;;;;18.20;88.19;102177.22;5116808;27;45351;-71
2022/10/18 06:06:44;;;;;;;;;24.00;21.00;;;;;18.11;88.28;102152.34;5116199;27;45595;-70
2022/10/18 06:09:10;;;;;;;;;29.00;25.75;;;;;18.19;88.70;102178.19;5103758;27;45757;-76
2022/10/18 06:11:36;;;;;;;;;25.25;24.25;;;;;18.14;88.83;102176.56;5095966;27;45495;-78
2022/10/18 06:14:01;;;;;;;;;30.50;27.75;;;;;18.21;88.57;102179.81;5095824;27;45567;-73
2022/10/18 06:16:27;;;;;;;;;33.25;25.25;;;;;17.96;88.75;102145.00;5095828;27;45727;-76
2022/10/18 06:18:55;;;;;;;;;29.25;26.00;;;;;18.19;88.54;102181.78;5094526;27;45431;-70
2022/10/18 06:21:21;;;;;;;;;33.00;30.00;;;;;18.15;88.98;102193.75;5095575;27;45330;-73
2022/10/18 06:23:58;;;;;;;;;35.00;28.50;;;;;18.02;88.99;102181.81;5095690;27;45348;-72
2022/10/18 06:26:24;;;;;;;;;33.25;26.25;;;;;18.05;89.29;102189.78;5095794;27;45326;-73
2022/10/18 06:28:50;;;;;;;;;30.50;25.25;;;;;17.96;89.38;102180.28;5095666;27;45334;-73
2022/10/18 06:31:16;;;;;;;;;33.00;29.50;;;;;17.90;89.74;102186.06;5096475;27;45489;-71
2022/10/18 06:33:41;;;;;;;;;26.50;22.75;;;;;17.95;90.03;102200.25;5094744;27;45948;-73
2022/10/18 06:36:15;;;;;;;;;33.50;27.50;;;;;17.99;90.19;102193.72;5103341;27;45508;-73
2022/10/18 06:38:41;;;;;;;;;30.00;28.50;;;;;18.03;89.89;102191.72;5100433;27;45282;-69
2022/10/18 06:41:07;;;;;;;;;28.25;24.50;;;;;18.06;89.75;102195.13;5095648;27;45385;-73
2022/10/18 06:43:33;;;;;;;;;28.25;25.50;;;;;18.09;89.28;102204.94;5107738;27;45414;-74
2022/10/18 06:46:01;;;;;;;;;30.25;25.00;;;;;18.11;89.46;102203.91;5095503;27;45276;-72
2022/10/18 06:48:26;;;;;;;;;27.00;22.75;;;;;18.14;89.10;102203.72;5095407;27;45417;-74
2022/10/18 06:50:57;;;;;;;;;23.75;17.25;;;;;18.18;88.84;102209.00;5095637;27;45396;-73
2022/10/18 06:53:24;;;;;;;;;26.75;22.00;;;;;18.19;88.17;102208.91;5094866;27;45252;-74
2022/10/18 06:55:49;;;;;;;;;21.50;19.00;;;;;18.11;87.92;102200.31;5095301;27;45598;-74
2022/10/18 06:58:15;;;;;;;;;25.75;20.00;;;;;18.21;87.60;102217.84;5098121;27;45872;-73
2022/10/18 07:00:40;;;;;;;;;18.50;18.50;;;;;18.20;87.93;102207.97;5116130;27;45484;-74
2022/10/18 07:03:05;;;;;;;;;20.00;18.75;;;;;18.20;87.73;102213.41;5115418;27;46072;-73
2022/10/18 07:05:31;;;;;;;;;24.25;22.25;;;;;18.25;87.72;102214.00;5114385;27;48398;-72
2022/10/18 07:07:56;;;;;;;;;25.25;21.75;;;;;18.34;87.76;102209.91;5112909;27;45546;-73
2022/10/18 07:10:24;;;;;;;;;30.00;24.50;;;;;18.37;87.65;102218.75;5095022;27;45497;-73
2022/10/18 07:12:50;;;;;;;;;30.00;23.00;;;;;18.35;87.57;102207.13;5094808;27;46034;-74
2022/10/18 07:15:16;;;;;;;;;25.00;21.00;;;;;18.40;87.15;102213.16;5094780;27;45439;-73
2022/10/18 07:17:44;;;;;;;;;19.50;18.50;;;;;18.48;87.07;102220.88;5095047;27;45565;-73
2022/10/18 07:20:10;;;;;;;;;23.50;20.00;;;;;18.45;86.95;102208.38;5094994;27;45262;-73
2022/10/18 07:22:37;;;;;;;;;20.25;19.00;;;;;18.49;86.98;102226.22;5094398;27;46630;-72
2022/10/18 07:25:03;;;;;;;;;18.25;17.00;;;;;18.53;86.37;102222.41;5095037;27;45318;-72
2022/10/18 07:27:29;;;;;;;;;18.25;17.25;;;;;18.53;85.83;102224.22;5094863;27;45346;-74
2022/10/18 07:29:54;;;;;;;;;20.50;16.25;;;;;18.61;85.74;102232.88;5103601;27;45333;-74
2022/10/18 07:32:20;;;;;;;;;10.50;10.50;;;;;18.63;85.78;102233.63;5113406;27;46066;-74
2022/10/18 07:34:45;;;;;;;;;14.75;14.75;;;;;18.56;85.10;102221.31;5115141;27;45229;-73
2022/10/18 07:37:10;;;;;;;;;11.75;11.75;;;;;18.65;84.71;102234.44;5114904;27;45448;-73
2022/10/18 07:39:35;;;;;;;;;13.50;12.25;;;;;18.67;84.89;102229.78;5115035;27;49802;-73
2022/10/18 07:42:01;;;;;;;;;10.50;10.50;;;;;18.68;84.61;102226.13;5114866;27;49995;-72
2022/10/18 07:44:26;;;;;;;;;13.50;13.50;;;;;18.74;84.57;102238.47;5115316;27;45341;-73
2022/10/18 07:46:51;;;;;;;;;10.50;10.50;;;;;18.80;84.45;102246.25;5115002;27;48460;-73
2022/10/18 07:49:17;;;;;;;;;11.25;10.75;;;;;18.77;83.73;102243.75;5104076;27;46156;-73
2022/10/18 07:51:42;;;;;;;;;11.25;10.75;;;;;18.87;83.71;102250.41;5110138;27;49178;-75
2022/10/18 07:54:08;;;;;;;;;7.25;7.25;;;;;18.83;83.37;102246.97;5115124;27;45337;-73
2022/10/18 07:56:33;;;;;;;;;8.50;6.75;;;;;18.89;82.30;102256.63;5115080;27;45445;-74
2022/10/18 07:58:59;;;;;;;;;9.00;7.50;;;;;18.93;82.15;102258.22;5095976;27;45512;-73
2022/10/18 08:01:24;;;;;;;;;7.00;7.00;;;;;19.01;81.88;102265.94;5094559;27;45459;-74
2022/10/18 08:03:51;;;;;;;;;8.50;8.25;;;;;18.94;82.15;102253.66;5094641;27;45328;-74
2022/10/18 08:06:19;;;;;;;;;10.00;8.50;;;;;19.09;81.60;102275.41;5094224;27;45200;-74
2022/10/18 08:08:44;;;;;;;;;8.75;8.75;;;;;19.09;81.67;102267.25;5094154;27;45215;-73
2022/10/18 08:11:13;;;;;;;;;7.50;7.50;;;;;19.03;80.52;102250.41;5109853;27;45347;-73
2022/10/18 08:13:39;;;;;;;;;7.75;6.75;;;;;19.20;80.46;102275.66;5114134;27;45407;-73
2022/10/18 08:16:07;;;;;;;;;8.75;8.75;;;;;19.29;80.07;102279.69;5114700;27;45440;-74
2022/10/18 08:18:34;;;;;;;;;9.75;8.00;;;;;19.27;80.49;102276.19;5115132;27;45350;-73
2022/10/18 08:21:00;;;;;;;;;7.75;7.75;;;;;19.33;79.60;102292.13;5115274;27;46376;-72
2022/10/18 08:23:26;;;;;;;;;8.25;7.00;;;;;19.30;79.41;102286.91;5118047;27;45305;-73
2022/10/18 08:25:51;;;;;;;;;6.00;6.00;;;;;19.34;79.75;102295.72;5118183;27;45323;-73
2022/10/18 08:28:16;;;;;;;;;7.00;7.00;;;;;19.29;79.56;102285.13;5118086;27;50786;-74
2022/10/18 08:30:42;;;;;;;;;9.25;9.25;;;;;19.38;79.66;102305.50;5113883;27;46133;-76
2022/10/18 08:33:08;;;;;;;;;8.25;8.00;;;;;19.31;78.96;102290.50;5096849;27;45408;-74
2022/10/18 08:35:34;;;;;;;;;12.00;11.00;;;;;19.33;79.56;102292.13;5097868;27;45518;-73
2022/10/18 08:37:59;;;;;;;;;9.75;9.75;;;;;19.34;79.68;102291.19;5097102;27;45382;-74
2022/10/18 08:40:26;;;;;;;;;11.50;8.75;;;;;19.44;79.62;102300.56;5097358;27;45375;-75
2022/10/18 08:43:08;;;;;;;;;10.50;8.25;;;;;19.47;79.83;102299.50;5097684;27;45446;-74
2022/10/18 08:45:37;;;;;;;;;11.00;11.00;;;;;19.45;78.93;102291.44;5097470;27;45408;-73
2022/10/18 08:48:05;;;;;;;;;10.50;10.00;;;;;19.50;78.93;102297.50;5099122;27;45364;-73
2022/10/18 08:50:35;;;;;;;;;9.25;8.25;;;;;19.59;79.52;102298.81;5097831;27;46147;-73
2022/10/18 08:53:04;;;;;;;;;9.00;9.00;;;;;19.66;78.93;102300.19;5097635;27;45341;-72
2022/10/18 08:55:37;;;;;;;;;12.00;12.00;;;;;19.61;78.57;102272.41;5097974;27;45297;-73
2022/10/18 08:58:18;;;;;;;;;14.50;11.00;;;;;19.75;78.69;102288.75;5098147;27;45452;-73
2022/10/18 09:00:52;;;;;;;;;14.50;12.75;;;;;19.75;77.47;102277.88;5100387;27;46198;-72
2022/10/18 09:03:24;;;;;;;;;9.00;9.00;;;;;19.69;76.87;102271.94;5117530;27;45407;-73
2022/10/18 09:06:00;;;;;;;;;10.00;10.00;;;;;19.72;76.70;102272.63;5117912;27;45294;-73
2022/10/18 09:08:41;;;;;;;;;12.00;11.75;;;;;19.81;76.91;102288.41;5095514;27;47440;-74
2022/10/18 09:11:30;;;;;;;;;18.50;14.50;;;;;19.79;76.36;102286.75;5096712;27;46549;-74
2022/10/18 09:14:11;;;;;;;;;11.25;11.25;;;;;19.78;77.12;102294.03;5096964;27;45192;-73
2022/10/18 09:16:49;;;;;;;;;11.75;11.00;;;;;19.83;76.63;102289.19;5096631;27;45281;-72
2022/10/18 09:19:34;;;;;;;;;11.00;10.75;;;;;19.85;76.62;102279.09;5096525;27;45311;-73
2022/10/18 09:22:18;;;;;;;;;12.75;11.50;;;;;19.92;76.29;102280.47;5096298;27;45343;-73
2022/10/18 09:25:17;;;;;;;;;10.25;9.00;;;;;19.90;76.28;102273.38;5103999;27;45291;-74
2022/10/18 09:27:54;;;;;;;;;10.25;8.00;;;;;20.01;75.98;102282.63;5117247;27;45519;-73
2022/10/18 09:30:37;;;;;;;;;6.75;6.75;;;;;20.04;75.35;102287.03;5116184;27;46008;-74
2022/10/18 09:33:21;;;;;;;;;6.25;6.25;;;;;20.01;75.13;102282.63;5105042;27;46570;-73
2022/10/18 09:36:15;;;;;;;;;8.75;7.75;;;;;20.03;74.69;102294.31;5117025;27;45560;-74
2022/10/18 09:38:45;;;;;;;;;11.00;11.00;;;;;19.98;74.52;102277.38;5113280;27;45520;-73
2022/10/18 09:41:23;;;;;;;;;9.00;7.25;;;;;20.03;75.03;102288.84;5117316;27;45440;-74
2022/10/18 09:44:12;;;;;;;;;11.50;11.50;;;;;19.99;75.22;102276.38;5116843;27;45429;-74
2022/10/18 09:46:45;;;;;;;;;8.50;8.50;;;;;20.06;74.94;102293.25;5116756;27;45845;-72
2022/10/18 09:49:18;;;;;;;;;8.75;8.75;;;;;20.07;75.26;102295.00;5117025;27;45326;-74
2022/10/18 09:51:44;;;;;;;;;8.25;8.25;;;;;19.98;75.46;102280.13;5116651;27;45214;-73
2022/10/18 09:54:25;;;;;;;;;7.75;7.75;;;;;20.01;74.85;102295.34;5117067;27;46282;-73
2022/10/18 09:57:23;;;;;;;;;12.00;10.00;;;;;20.07;75.22;102305.91;5115818;27;45345;-74
2022/10/18 09:59:49;;;;;;;;;8.75;7.75;;;;;20.03;75.27;102288.84;5096249;27;45258;-74
2022/10/18 10:02:21;;;;;;;;;6.00;6.00;;;;;20.05;75.23;102294.22;5096287;27;45204;-73
2022/10/18 10:04:46;;;;;;;;;7.75;7.50;;;;;20.07;74.82;102295.00;5095989;27;45910;-75
2022/10/18 10:07:22;;;;;;;;;4.00;4.00;;;;;20.08;75.95;102287.69;5095923;27;45188;-72
2022/10/18 10:09:54;;;;;;;;;8.25;7.25;;;;;20.23;74.64;102293.09;5100442;27;45321;-74
2022/10/18 10:12:27;;;;;;;;;5.00;5.00;;;;;20.21;74.83;102281.41;5116604;27;45524;-74
2022/10/18 10:14:52;;;;;;;;;5.00;5.00;;;;;20.28;74.40;102285.50;5116304;27;45357;-74
2022/10/18 10:17:25;;;;;;;;;4.75;4.75;;;;;20.34;73.73;102296.03;5116299;27;45278;-74
2022/10/18 10:19:56;;;;;;;;;5.00;5.00;;;;;20.39;74.00;102295.78;5116838;27;45404;-73
2022/10/18 10:22:36;;;;;;;;;6.00;6.00;;;;;20.44;74.09;102287.28;5115964;27;45554;-73
2022/10/18 10:25:01;;;;;;;;;6.50;6.50;;;;;20.48;73.94;102284.31;5116433;27;46038;-72
2022/10/18 10:27:42;;;;;;;;;5.00;4.25;;;;;20.68;73.60;102299.38;5116048;27;45444;-74
2022/10/18 10:30:29;;;;;;;;;4.50;4.50;;;;;20.71;73.15;102283.72;5116438;27;45371;-74
2022/10/18 10:32:55;;;;;;;;;3.50;3.50;;;;;20.89;72.19;102298.00;5103278;27;45467;-74
2022/10/18 10:35:35;;;;;;;;;2.75;2.75;;;;;20.99;71.77;102299.16;5115961;27;45507;-73
2022/10/18 10:38:01;;;;;;;;;6.75;4.00;;;;;21.00;72.15;102290.03;5115877;27;45368;-74
2022/10/18 10:40:29;;;;;;;;;2.50;2.50;;;;;21.11;71.72;102298.34;5115867;27;45420;-74
2022/10/18 10:43:14;;;;;;;;;2.25;2.25;;;;;21.05;71.42;102281.53;5116167;27;45232;-74
2022/10/18 10:46:11;;;;;;;;;3.75;2.75;;;;;21.09;71.59;102294.88;5115608;27;45332;-73
2022/10/18 10:48:57;;;;;;;;;2.00;2.00;;;;;21.14;71.54;102294.56;5081915;27;45543;-75
2022/10/18 10:51:29;;;;;;;;;3.25;3.25;;;;;21.13;71.20;102287.34;5095478;27;45405;-75
2022/10/18 10:54:02;;;;;;;;;4.25;2.50;;;;;21.19;70.91;102297.00;5102732;27;45361;-75
2022/10/18 10:56:35;;;;;;;;;4.75;3.75;;;;;21.19;70.15;102286.97;5115854;27;45494;-74
2022/10/18 10:59:14;;;;;;;;;3.00;3.00;;;;;21.12;70.42;102282.88;5097062;27;45288;-75
2022/10/18 11:01:40;;;;;;;;;3.75;3.75;;;;;20.99;70.45;102266.44;5095581;27;45341;-74
2022/10/18 11:04:25;;;;;;;;;4.00;4.00;;;;;21.07;70.14;102290.47;5095320;27;45417;-74
2022/10/18 11:07:01;;;;;;;;;2.00;2.00;;;;;21.00;70.29;102286.41;5094678;27;46371;-74
2022/10/18 11:09:46;;;;;;;;;5.75;4.00;;;;;20.96;71.02;102280.28;5096737;27;45687;-74
2022/10/18 11:12:27;;;;;;;;;4.25;4.25;;;;;20.93;71.24;102285.03;5115866;27;45513;-73
2022/10/18 11:15:21;;;;;;;;;3.75;3.75;;;;;20.94;71.56;102284.94;5115335;27;45633;-73
2022/10/18 11:18:24;;;;;;;;;3.00;3.00;;;;;20.96;71.76;102287.56;5114758;27;46410;-73
2022/10/18 11:21:26;;;;;;;;;6.00;6.00;;;;;20.99;70.90;102276.47;5115166;27;45487;-74
2022/10/18 11:23:52;;;;;;;;;7.00;6.00;;;;;20.93;70.57;102277.72;5115401;27;45490;-73
2022/10/18 11:27:02;;;;;;;;;3.75;3.75;;;;;20.85;71.44;102261.00;5115444;27;45471;-74
2022/10/18 11:29:46;;;;;;;;;6.50;5.00;;;;;20.92;71.58;102267.81;5057551;27;45497;-74
2022/10/18 11:32:29;;;;;;;;;5.50;5.50;;;;;20.96;72.11;102268.47;5095510;27;45544;-73
2022/10/18 11:35:13;;;;;;;;;9.00;6.00;;;;;21.00;72.11;102264.59;5094827;27;45423;-74
2022/10/18 11:37:53;;;;;;;;;4.75;4.75;;;;;21.04;71.75;102267.00;5094313;27;45349;-73
2022/10/18 11:40:31;;;;;;;;;4.50;4.50;;;;;21.04;71.48;102263.41;5106607;27;48029;-74
2022/10/18 11:42:56;;;;;;;;;6.50;5.00;;;;;21.03;71.58;102257.06;5094758;27;45497;-74
2022/10/18 11:45:38;;;;;;;;;4.50;4.50;;;;;21.00;71.61;102251.84;5094635;27;45552;-74
2022/10/18 11:48:12;;;;;;;;;9.50;8.25;;;;;20.99;71.62;102261.00;5094607;27;45610;-73
2022/10/18 11:50:57;;;;;;;;;7.75;7.75;;;;;20.94;71.52;102262.25;5094488;27;45408;-74
2022/10/18 11:53:37;;;;;;;;;8.75;8.75;;;;;20.89;71.61;102257.13;5106899;27;45350;-74
2022/10/18 11:56:31;;;;;;;;;9.00;7.75;;;;;20.86;72.19;102254.56;5095885;27;45322;-74
2022/10/18 11:59:24;;;;;;;;;9.00;9.00;;;;;20.81;71.91;102244.97;5106536;27;45206;-74
2022/10/18 12:02:03;;;;;;;;;8.00;8.00;;;;;20.73;72.34;102231.81;5118455;27;45275;-74
2022/10/18 12:04:44;;;;;;;;;10.00;8.75;;;;;20.70;72.44;102232.88;5118340;27;45377;-74
2022/10/18 12:07:15;;;;;;;;;9.25;7.75;;;;;20.46;72.37;102193.59;5118476;27;45306;-73
2022/10/18 12:09:44;;;;;;;;;7.50;7.50;;;;;20.72;72.40;102224.63;5101495;27;46932;-73
2022/10/18 12:12:25;;;;;;;;;9.00;8.75;;;;;20.78;72.40;102214.19;5097856;27;45443;-74
2022/10/18 12:15:14;;;;;;;;;9.75;9.00;;;;;20.81;72.93;102206.78;5116003;27;45488;-73
2022/10/18 12:17:43;;;;;;;;;8.75;7.75;;;;;20.99;72.69;102211.91;5102253;27;45508;-74
2022/10/18 12:20:31;;;;;;;;;5.25;5.25;;;;;21.13;72.10;102203.69;5097640;27;45412;-73
2022/10/18 12:23:19;;;;;;;;;7.25;4.75;;;;;21.23;71.18;102201.25;5103274;27;46132;-75
2022/10/18 12:26:00;;;;;;;;;3.75;3.75;;;;;21.25;70.57;102191.13;5116549;27;46196;-73
2022/10/18 12:28:31;;;;;;;;;4.75;4.75;;;;;21.34;70.48;102197.78;5118413;27;45562;-74
2022/10/18 12:31:07;;;;;;;;;4.25;4.25;;;;;21.35;70.67;102191.38;5111846;27;45684;-73
2022/10/18 12:33:44;;;;;;;;;5.00;5.00;;;;;21.34;70.45;102195.94;5097156;27;46145;-74
2022/10/18 12:36:37;;;;;;;;;3.50;3.50;;;;;21.39;69.96;102193.75;5097262;27;45405;-73
2022/10/18 12:39:09;;;;;;;;;4.00;3.00;;;;;21.45;69.92;102196.06;5097392;27;45519;-74
2022/10/18 12:41:35;;;;;;;;;2.50;2.50;;;;;21.55;68.44;102204.50;5097622;27;45314;-73
2022/10/18 12:44:06;;;;;;;;;3.75;3.25;;;;;21.61;67.57;102200.47;5097223;27;46177;-74
2022/10/18 12:46:46;;;;;;;;;3.50;2.50;;;;;21.66;68.28;102192.84;5097637;27;45427;-73
2022/10/18 12:49:20;;;;;;;;;1.75;1.75;;;;;21.63;67.80;102182.13;5097557;27;45537;-73
2022/10/18 12:52:03;;;;;;;;;2.50;1.50;;;;;21.66;67.97;102193.72;5097098;27;45506;-74
2022/10/18 12:54:31;;;;;;;;;2.50;2.50;;;;;21.63;68.06;102188.47;5097674;27;45459;-73
2022/10/18 12:56:59;;;;;;;;;2.50;2.50;;;;;21.63;67.67;102195.78;5096004;27;45540;-73
2022/10/18 12:59:25;;;;;;;;;3.00;3.00;;;;;21.60;67.74;102185.97;5109931;27;45418;-73
2022/10/18 13:01:50;;;;;;;;;5.50;4.00;;;;;21.56;68.03;102181.69;5117591;27;45451;-74
2022/10/18 13:04:28;;;;;;;;;3.25;3.25;;;;;21.53;68.64;102179.16;5117616;27;45471;-74
2022/10/18 13:06:57;;;;;;;;;4.00;4.00;;;;;21.49;68.45;102188.56;5117673;27;45351;-73
2022/10/18 13:09:34;;;;;;;;;3.00;3.00;;;;;21.35;68.64;102175.84;5112743;27;45477;-75
2022/10/18 13:12:08;;;;;;;;;3.00;3.00;;;;;21.38;68.82;102181.09;5097251;27;45477;-74
2022/10/18 13:14:57;;;;;;;;;6.25;3.50;;;;;21.32;68.88;102186.97;5096596;27;46430;-74
2022/10/18 13:17:32;;;;;;;;;5.00;5.00;;;;;21.27;68.99;102180.06;5096845;27;45409;-75
2022/10/18 13:20:18;;;;;;;;;5.25;5.25;;;;;21.25;69.50;102187.50;5097053;27;45471;-74
2022/10/18 13:22:51;;;;;;;;;6.25;6.25;;;;;21.10;69.23;102173.00;5096134;27;45440;-73
2022/10/18 13:25:40;;;;;;;;;6.25;6.25;;;;;21.11;69.95;102182.94;5109081;27;46064;-73
2022/10/18 13:28:24;;;;;;;;;4.75;4.75;;;;;21.02;69.79;102165.34;5085619;27;45301;-74
2022/10/18 13:31:00;;;;;;;;;6.75;5.00;;;;;20.94;70.07;102153.19;5097010;27;45455;-73
2022/10/18 13:33:40;;;;;;;;;3.25;1.50;;;;;21.04;70.12;102171.56;5096151;27;45526;-73
2022/10/18 13:36:05;;;;;;;;;3.25;3.25;;;;;21.06;70.47;102183.25;5095956;27;46361;-73
2022/10/18 13:38:34;;;;;;;;;3.00;3.00;;;;;21.05;70.26;102186.94;5096319;27;46601;-73
2022/10/18 13:41:25;;;;;;;;;3.25;3.25;;;;;21.02;70.31;102178.97;5105275;27;45328;-72
2022/10/18 13:44:24;;;;;;;;;3.75;2.75;;;;;21.02;69.84;102178.97;5116854;27;45398;-72
2022/10/18 13:46:50;;;;;;;;;6.50;6.00;;;;;21.01;69.93;102179.94;5116815;27;45926;-73
2022/10/18 13:49:30;;;;;;;;;4.00;4.00;;;;;21.00;69.62;102175.50;5117261;27;45379;-73
2022/10/18 13:52:28;;;;;;;;;3.50;3.50;;;;;20.98;69.45;102169.25;5117066;27;45345;-74
2022/10/18 13:55:18;;;;;;;;;3.25;2.75;;;;;21.01;68.86;102169.03;5116866;27;45386;-73
2022/10/18 13:57:52;;;;;;;;;7.00;4.00;;;;;21.01;68.81;102170.91;5108388;27;45468;-75
2022/10/18 14:00:34;;;;;;;;;4.50;4.50;;;;;21.01;68.39;102176.38;5096315;27;45375;-74
2022/10/18 14:03:29;;;;;;;;;4.25;4.00;;;;;21.01;69.17;102173.66;5108730;27;45503;-74
2022/10/18 14:06:04;;;;;;;;;4.25;4.25;;;;;21.01;68.98;102173.66;5096085;27;45218;-74
2022/10/18 14:08:43;;;;;;;;;5.00;4.00;;;;;21.02;69.09;102178.97;5095899;27;45539;-74
2022/10/18 14:11:35;;;;;;;;;4.25;2.75;;;;;20.91;68.81;102154.28;5111743;27;45385;-73
2022/10/18 14:14:13;;;;;;;;;5.00;4.25;;;;;21.02;69.02;102173.50;5116875;27;45273;-75
2022/10/18 14:16:47;;;;;;;;;6.00;4.25;;;;;21.00;69.10;102175.50;5116467;27;45387;-74
2022/10/18 14:19:16;;;;;;;;;4.75;4.75;;;;;20.97;69.32;102172.97;5115318;27;46937;-73
2022/10/18 14:21:49;;;;;;;;;6.75;4.00;;;;;20.98;69.05;102172.00;5116262;27;45366;-73
2022/10/18 14:24:24;;;;;;;;;6.50;4.75;;;;;20.96;69.38;102167.59;5116458;27;45362;-73
2022/10/18 14:27:11;;;;;;;;;3.25;2.75;;;;;20.97;69.51;102181.13;5116418;27;45470;-74
2022/10/18 14:29:37;;;;;;;;;6.50;4.50;;;;;20.96;69.72;102173.06;5115954;27;46981;-74
2022/10/18 14:32:08;;;;;;;;;4.25;4.00;;;;;20.94;69.67;102169.56;5100288;27;45272;-73
2022/10/18 14:34:34;;;;;;;;;6.75;5.75;;;;;20.86;69.54;102156.44;5095937;27;45323;-74
2022/10/18 14:37:00;;;;;;;;;4.00;4.00;;;;;20.84;69.61;102149.34;5095028;27;45594;-74
2022/10/18 14:39:29;;;;;;;;;5.00;5.00;;;;;20.81;68.98;102150.44;5095944;27;46332;-74
2022/10/18 14:41:57;;;;;;;;;3.00;3.00;;;;;20.87;69.78;102165.50;5107643;27;45460;-74
2022/10/18 14:44:28;;;;;;;;;5.50;4.50;;;;;20.91;70.15;102165.19;5096043;27;45655;-74
2022/10/18 14:47:21;;;;;;;;;4.00;2.75;;;;;20.89;69.82;102156.25;5095339;27;45355;-74
2022/10/18 14:49:48;;;;;;;;;3.25;2.50;;;;;20.89;69.72;102161.69;5093572;27;45284;-74
2022/10/18 14:52:39;;;;;;;;;4.00;2.50;;;;;20.92;69.82;102166.06;5095695;27;45299;-74
2022/10/18 14:55:06;;;;;;;;;2.25;2.00;;;;;20.92;69.68;102160.63;5094086;27;45503;-74
2022/10/18 14:57:34;;;;;;;;;2.75;2.75;;;;;20.87;69.50;102152.72;5096601;27;45325;-74
2022/10/18 15:00:04;;;;;;;;;1.75;1.75;;;;;20.81;69.96;102153.16;5114592;27;47026;-72
2022/10/18 15:02:34;;;;;;;;;2.25;1.50;;;;;20.86;69.04;102150.09;5116859;27;45432;-71
2022/10/18 15:05:24;;;;;;;;;3.00;2.00;;;;;20.83;69.66;102150.34;5116177;27;45544;-74
2022/10/18 15:07:50;;;;;;;;;2.75;2.75;;;;;20.72;69.53;102141.00;5113502;27;45512;-73
2022/10/18 15:10:25;;;;;;;;;3.00;3.00;;;;;20.78;69.70;102165.13;5095000;27;45535;-73
2022/10/18 15:12:51;;;;;;;;;7.25;3.75;;;;;20.73;69.71;102150.94;5094921;27;45350;-74
2022/10/18 15:15:20;;;;;;;;;2.50;2.00;;;;;20.74;69.85;102155.41;5095170;27;45410;-74
2022/10/18 15:17:48;;;;;;;;;1.00;1.00;;;;;20.70;69.50;102151.13;5094818;27;45288;-73
2022/10/18 15:20:32;;;;;;;;;4.00;3.00;;;;;20.67;69.86;102153.19;5094825;27;46429;-74
2022/10/18 15:23:21;;;;;;;;;2.25;1.50;;;;;20.63;69.47;102138.00;5094770;27;45407;-73
2022/10/18 15:25:46;;;;;;;;;2.00;2.00;;;;;20.54;69.31;102133.16;5095039;27;45499;-74
2022/10/18 15:28:52;;;;;;;;;3.50;3.50;;;;;20.60;69.69;102140.94;5096592;27;45488;-73
2022/10/18 15:31:25;;;;;;;;;5.00;3.00;;;;;20.60;69.52;102132.75;5092837;27;46536;-72
2022/10/18 15:33:52;;;;;;;;;9.25;6.25;;;;;20.59;69.89;102133.72;5097887;27;45396;-74
2022/10/18 15:36:30;;;;;;;;;3.00;3.00;;;;;20.59;70.13;102131.00;5098352;27;45270;-74
2022/10/18 15:39:06;;;;;;;;;4.25;4.25;;;;;20.60;69.96;102124.56;5101141;27;45307;-74
2022/10/18 15:41:37;;;;;;;;;3.25;3.25;;;;;20.56;70.17;102121.19;5106778;27;46707;-72
2022/10/18 15:44:31;;;;;;;;;4.75;4.50;;;;;20.60;70.15;102130.03;5098341;27;45439;-74
2022/10/18 15:47:28;;;;;;;;;2.50;2.50;;;;;20.57;69.68;102133.84;5100978;27;45392;-72
2022/10/18 15:49:57;;;;;;;;;1.75;1.75;;;;;20.54;69.78;102133.16;5059146;27;45568;-73
2022/10/18 15:52:39;;;;;;;;;2.00;2.00;;;;;20.55;69.77;102127.63;5098054;27;45988;-73
2022/10/18 15:55:29;;;;;;;;;3.50;3.25;;;;;20.57;69.81;102125.69;5098116;27;45264;-73
2022/10/18 15:58:10;;;;;;;;;4.00;4.00;;;;;20.48;69.47;102119.94;5101469;27;46447;-74
2022/10/18 16:00:35;;;;;;;;;5.00;3.00;;;;;20.45;70.10;102104.69;5098261;27;45563;-73
2022/10/18 16:03:00;;;;;;;;;2.50;2.50;;;;;20.49;70.03;102111.69;5097937;27;45456;-75
2022/10/18 16:05:26;;;;;;;;;4.25;4.25;;;;;20.53;69.90;102118.66;5098441;27;45309;-73
2022/10/18 16:07:52;;;;;;;;;7.25;5.75;;;;;20.56;70.08;102123.94;5097651;27;45334;-73
2022/10/18 16:10:17;;;;;;;;;5.00;4.00;;;;;20.56;69.92;102113.03;5106670;27;45536;-74
2022/10/18 16:12:42;;;;;;;;;2.00;2.00;;;;;20.56;69.80;102115.75;5118436;27;45429;-73
2022/10/18 16:15:08;;;;;;;;;1.75;1.75;;;;;20.53;70.20;102105.03;5118654;27;45384;-74
2022/10/18 16:17:33;;;;;;;;;6.25;5.00;;;;;20.54;69.91;102108.66;5118345;27;45537;-74